Arca — PDHT — position and weather

sailwx.info

Track history (hours):
 
Tides and Currents Weather Stations Pressure Air Temp Water Temp Dewpoint Dewpoint Depression Visibility Wind Speed Wind Dir Waves Ship Positions

Oceanographic research ship Arca (Netherlands)

Detailed information on ship capabilities available from University of Delaware's Ocean Information Center.

Last reported at 2017-Jan-24 12:18 UTC. Time now 2017-Jan-24 13:19 UTC.
Position N 51°47' E 003°21'.

Length 83 m; draft 5 m.

Type: Law enforcement. MMSI: 244454000.

Date/timePositionNaut miles runAvg speedWind from/ knotsBaromVisibWave heightAir tempDewpointWater temp
2017-Jan-24 12:18N 51°47' E 003°21'2 2.5
2017-Jan-24 11:32N 51°45' E 003°20'3 3.1
2017-Jan-24 10:33N 51°47' E 003°16'15 6.9
2017-Jan-24 08:25N 51°55' E 003°36'0 0.1
2017-Jan-24 07:31N 51°55' E 003°36'7 7.5
2017-Jan-24 06:34N 51°55' E 003°48'2 2.0
2017-Jan-24 05:31N 51°57' E 003°48'0 0.0
2017-Jan-24 04:31N 51°57' E 003°48'0 0.0
2017-Jan-24 03:22N 51°57' E 003°48'0 0.0
2017-Jan-24 02:28N 51°57' E 003°48'0 0.1
2017-Jan-24 01:31N 51°57' E 003°48'0 0.0
2017-Jan-24 00:31N 51°57' E 003°48'0 0.0
2017-Jan-23 23:31N 51°57' E 003°48'0 0.0
2017-Jan-23 22:28N 51°57' E 003°48'0 0.0
2017-Jan-23 21:25N 51°57' E 003°48'0 0.0
2017-Jan-23 20:31N 51°57' E 003°48'0 0.1
2017-Jan-23 19:31N 51°57' E 003°48'16 7.9
2017-Jan-23 17:33N 52°10' E 003°35'0 0.0
2017-Jan-23 16:32N 52°10' E 003°36'1 1.3
2017-Jan-23 15:33N 52°10' E 003°38'1 1.3
2017-Jan-23 14:33N 52°10' E 003°40'8 7.9
2017-Jan-23 13:33N 52°09' E 003°52'1111.2
2017-Jan-23 12:33N 52°07' E 004°10'3 3.5
2017-Jan-23 11:33N 52°06' E 004°16'0 0.0
2017-Jan-23 10:33N 52°06' E 004°16'0 0.0
2017-Jan-23 09:33N 52°06' E 004°16'0 0.0
2017-Jan-23 08:33N 52°06' E 004°16'0 0.0
2017-Jan-23 07:30N 52°06' E 004°16'0 0.0
2017-Jan-23 06:33N 52°06' E 004°16'0 0.0
2017-Jan-23 05:33N 52°06' E 004°16'0 0.0
2017-Jan-23 04:33N 52°06' E 004°16'0 0.0
2017-Jan-23 03:31N 52°06' E 004°16'0 0.0
2017-Jan-23 02:33N 52°06' E 004°16'0 0.0
2017-Jan-23 01:33N 52°06' E 004°16'0 0.0
2017-Jan-23 00:30N 52°06' E 004°16'0 0.0
2017-Jan-22 23:33N 52°06' E 004°16'0 0.0
2017-Jan-22 22:33N 52°06' E 004°16'0 0.0
2017-Jan-22 21:30N 52°06' E 004°16'0 0.0
2017-Jan-22 20:33N 52°06' E 004°16'0 0.0
2017-Jan-22 19:30N 52°06' E 004°16'0 0.0
2017-Jan-22 18:24N 52°06' E 004°16'0 0.0
2017-Jan-22 17:33N 52°06' E 004°16'0 0.0
2017-Jan-22 16:33N 52°06' E 004°16'0 0.0
2017-Jan-22 15:33N 52°06' E 004°16'0 0.0
2017-Jan-22 14:33N 52°06' E 004°16'0 0.0
2017-Jan-22 13:33N 52°06' E 004°16'0 0.0
2017-Jan-22 12:30N 52°06' E 004°16'0 0.0
2017-Jan-22 11:33N 52°06' E 004°16'0 0.0
2017-Jan-22 10:30N 52°06' E 004°16'0 0.0
2017-Jan-22 09:30N 52°06' E 004°16'0 0.0
2017-Jan-22 08:33N 52°06' E 004°16'0 0.0
2017-Jan-22 07:33N 52°06' E 004°16'0 0.0
2017-Jan-22 06:33N 52°06' E 004°16'0 0.0
2017-Jan-22 05:33N 52°06' E 004°16'0 0.0
2017-Jan-22 04:25N 52°06' E 004°16'0 0.0
2017-Jan-22 03:33N 52°06' E 004°16'0 0.0
2017-Jan-22 02:33N 52°06' E 004°16'0 0.0
2017-Jan-22 01:30N 52°06' E 004°16'0 0.0
2017-Jan-22 00:30N 52°06' E 004°16'0 0.0
2017-Jan-21 23:33N 52°06' E 004°16'0 0.0
2017-Jan-21 22:33N 52°06' E 004°16'0 0.0
2017-Jan-21 21:33N 52°06' E 004°16'0 0.0
2017-Jan-21 20:33N 52°06' E 004°16'0 0.0
2017-Jan-21 19:33N 52°06' E 004°16'0 0.0
2017-Jan-21 18:31N 52°06' E 004°16'0 0.0
2017-Jan-21 17:33N 52°06' E 004°16'0 0.0
2017-Jan-21 16:33N 52°06' E 004°16'0 0.0
2017-Jan-21 15:33N 52°06' E 004°16'0 0.0
2017-Jan-21 14:30N 52°06' E 004°16'0 0.0
2017-Jan-21 13:30N 52°06' E 004°16'0 0.0
2017-Jan-21 12:33N 52°06' E 004°16'0 0.0
2017-Jan-21 11:30N 52°06' E 004°16'0 0.0
2017-Jan-21 10:30N 52°06' E 004°16'0 0.0
2017-Jan-21 09:33N 52°06' E 004°16'0 0.0
2017-Jan-21 08:33N 52°06' E 004°16'0 0.0
2017-Jan-21 07:30N 52°06' E 004°16'0 0.0
2017-Jan-21 06:33N 52°06' E 004°16'0 0.0
2017-Jan-21 05:30N 52°06' E 004°16'0 0.0
2017-Jan-21 04:24N 52°06' E 004°16'0 0.0
2017-Jan-21 03:30N 52°06' E 004°16'0 0.0
2017-Jan-21 02:31N 52°06' E 004°16'0 0.0
2017-Jan-21 01:33N 52°06' E 004°16'0 0.0
2017-Jan-21 00:27N 52°06' E 004°16'0 0.0
2017-Jan-20 23:33N 52°06' E 004°16'0 0.0
2017-Jan-20 22:33N 52°06' E 004°16'0 0.0
2017-Jan-20 21:24N 52°06' E 004°16'0 0.0
2017-Jan-20 20:33N 52°06' E 004°16'0 0.0
2017-Jan-20 19:33N 52°06' E 004°16'0 0.0
2017-Jan-20 18:33N 52°06' E 004°16'0 0.0
2017-Jan-20 17:27N 52°06' E 004°16'0 0.0
2017-Jan-20 16:33N 52°06' E 004°16'0 0.0
2017-Jan-20 15:33N 52°06' E 004°16'0 0.0
2017-Jan-20 14:33N 52°06' E 004°16'0 0.0
2017-Jan-20 13:30N 52°06' E 004°16'0 0.0
2017-Jan-20 12:33N 52°06' E 004°16'0 0.0
2017-Jan-20 11:33N 52°06' E 004°16'0 0.0
2017-Jan-20 10:18N 52°06' E 004°16'0 0.0
2017-Jan-20 09:33N 52°06' E 004°16'0 0.0
2017-Jan-20 08:33N 52°06' E 004°16'0 0.0
2017-Jan-20 07:33N 52°06' E 004°16'0 0.0
2017-Jan-20 06:30N 52°06' E 004°16'0 0.0
2017-Jan-20 05:33N 52°06' E 004°16'0 0.0
2017-Jan-20 04:33N 52°06' E 004°16'0 0.0
2017-Jan-20 03:33N 52°06' E 004°16'0 0.0
2017-Jan-20 02:30N 52°06' E 004°16'0 0.0
2017-Jan-20 01:33N 52°06' E 004°16'0 0.0
2017-Jan-20 00:33N 52°06' E 004°16'0 0.0
2017-Jan-19 23:33N 52°06' E 004°16'0 0.0
2017-Jan-19 22:33N 52°06' E 004°16'0 0.0
2017-Jan-19 21:33N 52°06' E 004°16'0 0.0
2017-Jan-19 20:33N 52°06' E 004°16'0 0.0
2017-Jan-19 19:33N 52°06' E 004°16'0 0.0
2017-Jan-19 18:30N 52°06' E 004°16'0 0.0
2017-Jan-19 17:30N 52°06' E 004°16'0 0.0
2017-Jan-19 16:33N 52°06' E 004°16'0 0.0
2017-Jan-19 15:33N 52°06' E 004°16'0 0.0
2017-Jan-19 14:30N 52°06' E 004°16'0 0.0
2017-Jan-19 13:33N 52°06' E 004°16'7 7.0
2017-Jan-19 12:33N 52°10' E 004°07'9 9.2
2017-Jan-19 11:33N 52°14' E 003°53'2 1.6
2017-Jan-19 10:33N 52°14' E 003°51'1010.3
2017-Jan-19 09:33N 52°04' E 003°50'1312.6
2017-Jan-19 08:33N 51°55' E 003°36'0 0.0
2017-Jan-19 07:33N 51°55' E 003°36'1 0.6
2017-Jan-19 06:31N 51°54' E 003°36'0 0.0
2017-Jan-19 05:31N 51°54' E 003°36'0 0.1
2017-Jan-19 04:28N 51°54' E 003°36'0 0.0
2017-Jan-19 03:25N 51°54' E 003°36'0 0.0
2017-Jan-19 02:25N 51°54' E 003°36'0 0.0
2017-Jan-19 01:28N 51°54' E 003°36'0 0.0
2017-Jan-19 00:31N 51°54' E 003°36'0 0.0
2017-Jan-18 23:28N 51°54' E 003°36'0 0.0
2017-Jan-18 22:13N 51°54' E 003°36'0 0.0
2017-Jan-18 21:16N 51°54' E 003°36'0 0.1
2017-Jan-18 20:31N 51°54' E 003°36'0 0.0
2017-Jan-18 19:22N 51°54' E 003°36'9 9.3
2017-Jan-18 18:24N 51°46' E 003°29'910.8
2017-Jan-18 17:33N 51°38' E 003°22'6 6.2
2017-Jan-18 16:33N 51°33' E 003°26'6 5.7
2017-Jan-18 15:32N 51°36' E 003°18'7 6.6
2017-Jan-18 14:31N 51°43' E 003°15'8 8.1
2017-Jan-18 13:33N 51°51' E 003°14'4 4.3
2017-Jan-18 12:33N 51°50' E 003°21'5 4.5
2017-Jan-18 11:30N 51°50' E 003°14'6 5.8
2017-Jan-18 10:28N 51°50' E 003°04'3 3.0
2017-Jan-18 09:33N 51°50' E 003°09'5 4.8
2017-Jan-18 08:29N 51°45' E 003°12'3 3.6
2017-Jan-18 07:33N 51°46' E 003°17'2 2.0
2017-Jan-18 06:33N 51°47' E 003°20'2 1.4
2017-Jan-18 05:25N 51°47' E 003°23'0 0.0
2017-Jan-18 02:11N 51°47' E 003°23'0 0.0
2017-Jan-18 01:14N 51°47' E 003°23'0 0.0
2017-Jan-18 00:25N 51°47' E 003°23'0 0.0
2017-Jan-17 23:32N 51°47' E 003°23'0 0.0
2017-Jan-17 22:29N 51°47' E 003°23'0 0.1
2017-Jan-17 21:31N 51°47' E 003°23'0 0.0
2017-Jan-17 20:32N 51°47' E 003°23'0 0.0
2017-Jan-17 19:20N 51°47' E 003°23'4 4.4
2017-Jan-17 18:28N 51°43' E 003°23'7 8.2
2017-Jan-17 17:33N 51°36' E 003°24'0 0.3
2017-Jan-17 16:33N 51°36' E 003°23'1 0.6
2017-Jan-17 15:33N 51°37' E 003°23'3 2.5
2017-Jan-17 14:28N 51°34' E 003°25'910.2
2017-Jan-17 13:33N 51°27' E 003°34'1010.2
2017-Jan-17 12:33N 51°21' E 003°48'2 2.2
2017-Jan-17 11:33N 51°20' E 003°51'0 0.1
2017-Jan-17 10:33N 51°20' E 003°51'0 0.1
2017-Jan-17 09:33N 51°21' E 003°51'1 0.8
2017-Jan-17 08:32N 51°21' E 003°52'1 1.2
2017-Jan-17 07:33N 51°21' E 003°50'9 9.1
2017-Jan-17 06:33N 51°26' E 003°39'2 1.2
2017-Jan-17 04:30N 51°27' E 003°35'0 0.0
2017-Jan-17 03:24N 51°27' E 003°35'0 0.0
2017-Jan-17 02:30N 51°27' E 003°35'0 0.0
2017-Jan-17 01:30N 51°27' E 003°35'0 0.0
2017-Jan-17 00:30N 51°27' E 003°35'0 0.0
2017-Jan-16 23:24N 51°27' E 003°35'0 0.0
2017-Jan-16 22:30N 51°27' E 003°35'0 0.0
2017-Jan-16 21:24N 51°27' E 003°35'0 0.0
2017-Jan-16 20:06N 51°27' E 003°35'0 0.0
2017-Jan-16 19:24N 51°27' E 003°35'0 0.0
2017-Jan-16 18:18N 51°27' E 003°35'0 0.0
2017-Jan-16 17:24N 51°27' E 003°35'0 0.0
2017-Jan-16 16:24N 51°27' E 003°35'0 0.0
2017-Jan-16 15:32N 51°27' E 003°35'1 1.3
2017-Jan-16 14:33N 51°27' E 003°33'1313.2
2017-Jan-16 13:33N 51°38' E 003°21'1413.3
2017-Jan-16 12:30N 51°48' E 003°36'1313.9
2017-Jan-16 11:34N 51°56' E 003°52'1312.6
2017-Jan-16 10:33N 52°05' E 004°08'5 4.8
2017-Jan-16 09:33N 52°06' E 004°16'0 0.0
2017-Jan-16 08:30N 52°06' E 004°16'0 0.0
2017-Jan-16 07:33N 52°06' E 004°16'0 0.0
2017-Jan-16 06:30N 52°06' E 004°16'0 0.0
2017-Jan-16 05:33N 52°06' E 004°16'0 0.0
2017-Jan-16 04:33N 52°06' E 004°16'0 0.0
2017-Jan-16 03:33N 52°06' E 004°16'0 0.0
2017-Jan-16 02:30N 52°06' E 004°16'0 0.0
2017-Jan-16 01:33N 52°06' E 004°16'0 0.0
2017-Jan-16 00:33N 52°06' E 004°16'0 0.0
2017-Jan-15 23:33N 52°06' E 004°16'0 0.0
2017-Jan-15 22:33N 52°06' E 004°16'0 0.0
2017-Jan-15 21:33N 52°06' E 004°16'0 0.0
2017-Jan-15 20:30N 52°06' E 004°16'0 0.0
2017-Jan-15 19:33N 52°06' E 004°16'0 0.0
2017-Jan-15 18:33N 52°06' E 004°16'0 0.0
2017-Jan-15 17:33N 52°06' E 004°16'0 0.0
2017-Jan-15 16:30N 52°06' E 004°16'0 0.0
2017-Jan-15 15:30N 52°06' E 004°16'0 0.0
2017-Jan-15 14:33N 52°06' E 004°16'0 0.0
2017-Jan-15 13:30N 52°06' E 004°16'0 0.0
2017-Jan-15 12:33N 52°06' E 004°16'0 0.0
2017-Jan-15 11:33N 52°06' E 004°16'0 0.0
2017-Jan-15 10:33N 52°06' E 004°16'0 0.0
2017-Jan-15 09:33N 52°06' E 004°16'0 0.0
2017-Jan-15 08:33N 52°06' E 004°16'0 0.0
2017-Jan-15 07:33N 52°06' E 004°16'0 0.0
2017-Jan-15 06:30N 52°06' E 004°16'0 0.0
2017-Jan-15 05:30N 52°06' E 004°16'0 0.0
2017-Jan-15 04:33N 52°06' E 004°16'0 0.0
2017-Jan-15 03:33N 52°06' E 004°16'0 0.0
2017-Jan-15 02:33N 52°06' E 004°16'0 0.0
2017-Jan-15 01:33N 52°06' E 004°16'0 0.0
2017-Jan-15 00:30N 52°06' E 004°16'0 0.0
2017-Jan-14 23:33N 52°06' E 004°16'0 0.0
2017-Jan-14 22:33N 52°06' E 004°16'0 0.0
2017-Jan-14 21:33N 52°06' E 004°16'0 0.0
2017-Jan-14 20:33N 52°06' E 004°16'0 0.0
2017-Jan-14 19:30N 52°06' E 004°16'0 0.0
2017-Jan-14 18:33N 52°06' E 004°16'0 0.0
2017-Jan-14 17:33N 52°06' E 004°16'0 0.0
2017-Jan-14 16:33N 52°06' E 004°16'0 0.0
2017-Jan-14 15:27N 52°06' E 004°16'0 0.0
2017-Jan-14 14:33N 52°06' E 004°16'0 0.0
2017-Jan-14 13:33N 52°06' E 004°16'0 0.0
2017-Jan-14 12:33N 52°06' E 004°16'  
Track history (hours):
 
Tides and Currents Weather Stations Pressure Air Temp Water Temp Dewpoint Dewpoint Depression Visibility Wind Speed Wind Dir Waves Ship Positions

Oceanographic research ship Arca (Netherlands)

Detailed information on ship capabilities available from University of Delaware's Ocean Information Center.

Last reported at 2017-Jan-24 12:18 UTC. Time now 2017-Jan-24 13:19 UTC.
Position N 51°47' E 003°21'.

Length 83 m; draft 5 m.

Type: Law enforcement. MMSI: 244454000.

Date/timePositionNaut miles runAvg speedWind from/ knotsBaromVisibWave heightAir tempDewpointWater temp
2017-Jan-24 12:18N 51°47' E 003°21'2 2.5
2017-Jan-24 11:32N 51°45' E 003°20'3 3.1
2017-Jan-24 10:33N 51°47' E 003°16'15 6.9
2017-Jan-24 08:25N 51°55' E 003°36'0 0.1
2017-Jan-24 07:31N 51°55' E 003°36'7 7.5
2017-Jan-24 06:34N 51°55' E 003°48'2 2.0
2017-Jan-24 05:31N 51°57' E 003°48'0 0.0
2017-Jan-24 04:31N 51°57' E 003°48'0 0.0
2017-Jan-24 03:22N 51°57' E 003°48'0 0.0
2017-Jan-24 02:28N 51°57' E 003°48'0 0.1
2017-Jan-24 01:31N 51°57' E 003°48'0 0.0
2017-Jan-24 00:31N 51°57' E 003°48'0 0.0
2017-Jan-23 23:31N 51°57' E 003°48'0 0.0
2017-Jan-23 22:28N 51°57' E 003°48'0 0.0
2017-Jan-23 21:25N 51°57' E 003°48'0 0.0
2017-Jan-23 20:31N 51°57' E 003°48'0 0.1
2017-Jan-23 19:31N 51°57' E 003°48'16 7.9
2017-Jan-23 17:33N 52°10' E 003°35'0 0.0
2017-Jan-23 16:32N 52°10' E 003°36'1 1.3
2017-Jan-23 15:33N 52°10' E 003°38'1 1.3
2017-Jan-23 14:33N 52°10' E 003°40'8 7.9
2017-Jan-23 13:33N 52°09' E 003°52'1111.2
2017-Jan-23 12:33N 52°07' E 004°10'3 3.5
2017-Jan-23 11:33N 52°06' E 004°16'0 0.0
2017-Jan-23 10:33N 52°06' E 004°16'0 0.0
2017-Jan-23 09:33N 52°06' E 004°16'0 0.0
2017-Jan-23 08:33N 52°06' E 004°16'0 0.0
2017-Jan-23 07:30N 52°06' E 004°16'0 0.0
2017-Jan-23 06:33N 52°06' E 004°16'0 0.0
2017-Jan-23 05:33N 52°06' E 004°16'0 0.0
2017-Jan-23 04:33N 52°06' E 004°16'0 0.0
2017-Jan-23 03:31N 52°06' E 004°16'0 0.0
2017-Jan-23 02:33N 52°06' E 004°16'0 0.0
2017-Jan-23 01:33N 52°06' E 004°16'0 0.0
2017-Jan-23 00:30N 52°06' E 004°16'0 0.0
2017-Jan-22 23:33N 52°06' E 004°16'0 0.0
2017-Jan-22 22:33N 52°06' E 004°16'0 0.0
2017-Jan-22 21:30N 52°06' E 004°16'0 0.0
2017-Jan-22 20:33N 52°06' E 004°16'0 0.0
2017-Jan-22 19:30N 52°06' E 004°16'0 0.0
2017-Jan-22 18:24N 52°06' E 004°16'0 0.0
2017-Jan-22 17:33N 52°06' E 004°16'0 0.0
2017-Jan-22 16:33N 52°06' E 004°16'0 0.0
2017-Jan-22 15:33N 52°06' E 004°16'0 0.0
2017-Jan-22 14:33N 52°06' E 004°16'0 0.0
2017-Jan-22 13:33N 52°06' E 004°16'0 0.0
2017-Jan-22 12:30N 52°06' E 004°16'0 0.0
2017-Jan-22 11:33N 52°06' E 004°16'0 0.0
2017-Jan-22 10:30N 52°06' E 004°16'0 0.0
2017-Jan-22 09:30N 52°06' E 004°16'0 0.0
2017-Jan-22 08:33N 52°06' E 004°16'0 0.0
2017-Jan-22 07:33N 52°06' E 004°16'0 0.0
2017-Jan-22 06:33N 52°06' E 004°16'0 0.0
2017-Jan-22 05:33N 52°06' E 004°16'0 0.0
2017-Jan-22 04:25N 52°06' E 004°16'0 0.0
2017-Jan-22 03:33N 52°06' E 004°16'0 0.0
2017-Jan-22 02:33N 52°06' E 004°16'0 0.0
2017-Jan-22 01:30N 52°06' E 004°16'0 0.0
2017-Jan-22 00:30N 52°06' E 004°16'0 0.0
2017-Jan-21 23:33N 52°06' E 004°16'0 0.0
2017-Jan-21 22:33N 52°06' E 004°16'0 0.0
2017-Jan-21 21:33N 52°06' E 004°16'0 0.0
2017-Jan-21 20:33N 52°06' E 004°16'0 0.0
2017-Jan-21 19:33N 52°06' E 004°16'0 0.0
2017-Jan-21 18:31N 52°06' E 004°16'0 0.0
2017-Jan-21 17:33N 52°06' E 004°16'0 0.0
2017-Jan-21 16:33N 52°06' E 004°16'0 0.0
2017-Jan-21 15:33N 52°06' E 004°16'0 0.0
2017-Jan-21 14:30N 52°06' E 004°16'0 0.0
2017-Jan-21 13:30N 52°06' E 004°16'0 0.0
2017-Jan-21 12:33N 52°06' E 004°16'0 0.0
2017-Jan-21 11:30N 52°06' E 004°16'0 0.0
2017-Jan-21 10:30N 52°06' E 004°16'0 0.0
2017-Jan-21 09:33N 52°06' E 004°16'0 0.0
2017-Jan-21 08:33N 52°06' E 004°16'0 0.0
2017-Jan-21 07:30N 52°06' E 004°16'0 0.0
2017-Jan-21 06:33N 52°06' E 004°16'0 0.0
2017-Jan-21 05:30N 52°06' E 004°16'0 0.0
2017-Jan-21 04:24N 52°06' E 004°16'0 0.0
2017-Jan-21 03:30N 52°06' E 004°16'0 0.0
2017-Jan-21 02:31N 52°06' E 004°16'0 0.0
2017-Jan-21 01:33N 52°06' E 004°16'0 0.0
2017-Jan-21 00:27N 52°06' E 004°16'0 0.0
2017-Jan-20 23:33N 52°06' E 004°16'0 0.0
2017-Jan-20 22:33N 52°06' E 004°16'0 0.0
2017-Jan-20 21:24N 52°06' E 004°16'0 0.0
2017-Jan-20 20:33N 52°06' E 004°16'0 0.0
2017-Jan-20 19:33N 52°06' E 004°16'0 0.0
2017-Jan-20 18:33N 52°06' E 004°16'0 0.0
2017-Jan-20 17:27N 52°06' E 004°16'0 0.0
2017-Jan-20 16:33N 52°06' E 004°16'0 0.0
2017-Jan-20 15:33N 52°06' E 004°16'0 0.0
2017-Jan-20 14:33N 52°06' E 004°16'0 0.0
2017-Jan-20 13:30N 52°06' E 004°16'0 0.0
2017-Jan-20 12:33N 52°06' E 004°16'0 0.0
2017-Jan-20 11:33N 52°06' E 004°16'0 0.0
2017-Jan-20 10:18N 52°06' E 004°16'0 0.0
2017-Jan-20 09:33N 52°06' E 004°16'0 0.0
2017-Jan-20 08:33N 52°06' E 004°16'0 0.0
2017-Jan-20 07:33N 52°06' E 004°16'0 0.0
2017-Jan-20 06:30N 52°06' E 004°16'0 0.0
2017-Jan-20 05:33N 52°06' E 004°16'0 0.0
2017-Jan-20 04:33N 52°06' E 004°16'0 0.0
2017-Jan-20 03:33N 52°06' E 004°16'0 0.0
2017-Jan-20 02:30N 52°06' E 004°16'0 0.0
2017-Jan-20 01:33N 52°06' E 004°16'0 0.0
2017-Jan-20 00:33N 52°06' E 004°16'0 0.0
2017-Jan-19 23:33N 52°06' E 004°16'0 0.0
2017-Jan-19 22:33N 52°06' E 004°16'0 0.0
2017-Jan-19 21:33N 52°06' E 004°16'0 0.0
2017-Jan-19 20:33N 52°06' E 004°16'0 0.0
2017-Jan-19 19:33N 52°06' E 004°16'0 0.0
2017-Jan-19 18:30N 52°06' E 004°16'0 0.0
2017-Jan-19 17:30N 52°06' E 004°16'0 0.0
2017-Jan-19 16:33N 52°06' E 004°16'0 0.0
2017-Jan-19 15:33N 52°06' E 004°16'0 0.0
2017-Jan-19 14:30N 52°06' E 004°16'0 0.0
2017-Jan-19 13:33N 52°06' E 004°16'7 7.0
2017-Jan-19 12:33N 52°10' E 004°07'9 9.2
2017-Jan-19 11:33N 52°14' E 003°53'2 1.6
2017-Jan-19 10:33N 52°14' E 003°51'1010.3
2017-Jan-19 09:33N 52°04' E 003°50'1312.6
2017-Jan-19 08:33N 51°55' E 003°36'0 0.0
2017-Jan-19 07:33N 51°55' E 003°36'1 0.6
2017-Jan-19 06:31N 51°54' E 003°36'0 0.0
2017-Jan-19 05:31N 51°54' E 003°36'0 0.1
2017-Jan-19 04:28N 51°54' E 003°36'0 0.0
2017-Jan-19 03:25N 51°54' E 003°36'0 0.0
2017-Jan-19 02:25N 51°54' E 003°36'0 0.0
2017-Jan-19 01:28N 51°54' E 003°36'0 0.0
2017-Jan-19 00:31N 51°54' E 003°36'0 0.0
2017-Jan-18 23:28N 51°54' E 003°36'0 0.0
2017-Jan-18 22:13N 51°54' E 003°36'0 0.0
2017-Jan-18 21:16N 51°54' E 003°36'0 0.1
2017-Jan-18 20:31N 51°54' E 003°36'0 0.0
2017-Jan-18 19:22N 51°54' E 003°36'9 9.3
2017-Jan-18 18:24N 51°46' E 003°29'910.8
2017-Jan-18 17:33N 51°38' E 003°22'6 6.2
2017-Jan-18 16:33N 51°33' E 003°26'6 5.7
2017-Jan-18 15:32N 51°36' E 003°18'7 6.6
2017-Jan-18 14:31N 51°43' E 003°15'8 8.1
2017-Jan-18 13:33N 51°51' E 003°14'4 4.3
2017-Jan-18 12:33N 51°50' E 003°21'5 4.5
2017-Jan-18 11:30N 51°50' E 003°14'6 5.8
2017-Jan-18 10:28N 51°50' E 003°04'3 3.0
2017-Jan-18 09:33N 51°50' E 003°09'5 4.8
2017-Jan-18 08:29N 51°45' E 003°12'3 3.6
2017-Jan-18 07:33N 51°46' E 003°17'2 2.0
2017-Jan-18 06:33N 51°47' E 003°20'2 1.4
2017-Jan-18 05:25N 51°47' E 003°23'0 0.0
2017-Jan-18 02:11N 51°47' E 003°23'0 0.0
2017-Jan-18 01:14N 51°47' E 003°23'0 0.0
2017-Jan-18 00:25N 51°47' E 003°23'0 0.0
2017-Jan-17 23:32N 51°47' E 003°23'0 0.0
2017-Jan-17 22:29N 51°47' E 003°23'0 0.1
2017-Jan-17 21:31N 51°47' E 003°23'0 0.0
2017-Jan-17 20:32N 51°47' E 003°23'0 0.0
2017-Jan-17 19:20N 51°47' E 003°23'4 4.4
2017-Jan-17 18:28N 51°43' E 003°23'7 8.2
2017-Jan-17 17:33N 51°36' E 003°24'0 0.3
2017-Jan-17 16:33N 51°36' E 003°23'1 0.6
2017-Jan-17 15:33N 51°37' E 003°23'3 2.5
2017-Jan-17 14:28N 51°34' E 003°25'910.2
2017-Jan-17 13:33N 51°27' E 003°34'1010.2
2017-Jan-17 12:33N 51°21' E 003°48'2 2.2
2017-Jan-17 11:33N 51°20' E 003°51'0 0.1
2017-Jan-17 10:33N 51°20' E 003°51'0 0.1
2017-Jan-17 09:33N 51°21' E 003°51'1 0.8
2017-Jan-17 08:32N 51°21' E 003°52'1 1.2
2017-Jan-17 07:33N 51°21' E 003°50'9 9.1
2017-Jan-17 06:33N 51°26' E 003°39'2 1.2
2017-Jan-17 04:30N 51°27' E 003°35'0 0.0
2017-Jan-17 03:24N 51°27' E 003°35'0 0.0
2017-Jan-17 02:30N 51°27' E 003°35'0 0.0
2017-Jan-17 01:30N 51°27' E 003°35'0 0.0
2017-Jan-17 00:30N 51°27' E 003°35'0 0.0
2017-Jan-16 23:24N 51°27' E 003°35'0 0.0
2017-Jan-16 22:30N 51°27' E 003°35'0 0.0
2017-Jan-16 21:24N 51°27' E 003°35'0 0.0
2017-Jan-16 20:06N 51°27' E 003°35'0 0.0
2017-Jan-16 19:24N 51°27' E 003°35'0 0.0
2017-Jan-16 18:18N 51°27' E 003°35'0 0.0
2017-Jan-16 17:24N 51°27' E 003°35'0 0.0
2017-Jan-16 16:24N 51°27' E 003°35'0 0.0
2017-Jan-16 15:32N 51°27' E 003°35'1 1.3
2017-Jan-16 14:33N 51°27' E 003°33'1313.2
2017-Jan-16 13:33N 51°38' E 003°21'1413.3
2017-Jan-16 12:30N 51°48' E 003°36'1313.9
2017-Jan-16 11:34N 51°56' E 003°52'1312.6
2017-Jan-16 10:33N 52°05' E 004°08'5 4.8
2017-Jan-16 09:33N 52°06' E 004°16'0 0.0
2017-Jan-16 08:30N 52°06' E 004°16'0 0.0
2017-Jan-16 07:33N 52°06' E 004°16'0 0.0
2017-Jan-16 06:30N 52°06' E 004°16'0 0.0
2017-Jan-16 05:33N 52°06' E 004°16'0 0.0
2017-Jan-16 04:33N 52°06' E 004°16'0 0.0
2017-Jan-16 03:33N 52°06' E 004°16'0 0.0
2017-Jan-16 02:30N 52°06' E 004°16'0 0.0
2017-Jan-16 01:33N 52°06' E 004°16'0 0.0
2017-Jan-16 00:33N 52°06' E 004°16'0 0.0
2017-Jan-15 23:33N 52°06' E 004°16'0 0.0
2017-Jan-15 22:33N 52°06' E 004°16'0 0.0
2017-Jan-15 21:33N 52°06' E 004°16'0 0.0
2017-Jan-15 20:30N 52°06' E 004°16'0 0.0
2017-Jan-15 19:33N 52°06' E 004°16'0 0.0
2017-Jan-15 18:33N 52°06' E 004°16'0 0.0
2017-Jan-15 17:33N 52°06' E 004°16'0 0.0
2017-Jan-15 16:30N 52°06' E 004°16'0 0.0
2017-Jan-15 15:30N 52°06' E 004°16'0 0.0
2017-Jan-15 14:33N 52°06' E 004°16'0 0.0
2017-Jan-15 13:30N 52°06' E 004°16'0 0.0
2017-Jan-15 12:33N 52°06' E 004°16'0 0.0
2017-Jan-15 11:33N 52°06' E 004°16'0 0.0
2017-Jan-15 10:33N 52°06' E 004°16'0 0.0
2017-Jan-15 09:33N 52°06' E 004°16'0 0.0
2017-Jan-15 08:33N 52°06' E 004°16'0 0.0
2017-Jan-15 07:33N 52°06' E 004°16'0 0.0
2017-Jan-15 06:30N 52°06' E 004°16'0 0.0
2017-Jan-15 05:30N 52°06' E 004°16'0 0.0
2017-Jan-15 04:33N 52°06' E 004°16'0 0.0
2017-Jan-15 03:33N 52°06' E 004°16'0 0.0
2017-Jan-15 02:33N 52°06' E 004°16'0 0.0
2017-Jan-15 01:33N 52°06' E 004°16'0 0.0
2017-Jan-15 00:30N 52°06' E 004°16'0 0.0
2017-Jan-14 23:33N 52°06' E 004°16'0 0.0
2017-Jan-14 22:33N 52°06' E 004°16'0 0.0
2017-Jan-14 21:33N 52°06' E 004°16'0 0.0
2017-Jan-14 20:33N 52°06' E 004°16'0 0.0
2017-Jan-14 19:30N 52°06' E 004°16'0 0.0
2017-Jan-14 18:33N 52°06' E 004°16'0 0.0
2017-Jan-14 17:33N 52°06' E 004°16'0 0.0
2017-Jan-14 16:33N 52°06' E 004°16'0 0.0
2017-Jan-14 15:27N 52°06' E 004°16'0 0.0
2017-Jan-14 14:33N 52°06' E 004°16'0 0.0
2017-Jan-14 13:33N 52°06' E 004°16'0 0.0
2017-Jan-14 12:33N 52°06' E 004°16'  

Dump ship's entire track history